Time;durP1;ratioP1;P1;durP2;ratioP2;P2;SDS_P1;SDS_P2;PMS_P1;PMS_P2;Temp;Humidity;BMP_temperature;BMP_pressure;BME280_temperature;BME280_humidity;BME280_pressure;Samples;Min_cycle;Max_cycle;Signal;HPM_P1;HPM_P2
2021/03/07 00:01:50;;;;;;;11.23;7.87;;;;;;;4.03;69.81;101878.06;5019428;28;20026;-69
2021/03/07 00:04:16;;;;;;;11.17;7.80;;;;;;;4.48;69.51;101974.81;5029721;28;20075;-68
2021/03/07 00:06:41;;;;;;;9.53;7.77;;;;;;;4.30;69.94;101956.22;5030037;28;20026;-68
2021/03/07 00:09:07;;;;;;;11.37;8.43;;;;;;;4.43;70.43;101957.28;5030280;28;20468;-71
2021/03/07 00:11:32;;;;;;;9.73;7.50;;;;;;;4.53;70.02;101963.28;5030329;28;20053;-68
2021/03/07 00:13:58;;;;;;;76.70;35.70;;;;;;;4.47;70.00;101969.56;5012096;28;20049;-69
2021/03/07 00:16:23;;;;;;;19.00;11.07;;;;;;;4.49;69.86;101966.38;5030565;28;20547;-72
2021/03/07 00:18:49;;;;;;;19.07;10.77;;;;;;;4.18;70.38;101910.03;5028910;28;20021;-68
2021/03/07 00:21:15;;;;;;;10.33;8.20;;;;;;;4.46;70.10;101942.19;5031952;28;20116;-67
2021/03/07 00:23:41;;;;;;;10.23;8.17;;;;;;;4.56;69.20;101970.38;5026150;28;20046;-68
2021/03/07 00:26:07;;;;;;;12.07;7.80;;;;;;;4.43;69.24;101954.72;5034267;28;20029;-69
2021/03/07 00:28:33;;;;;;;18.80;9.17;;;;;;;4.40;69.58;101952.81;5034567;28;20040;-70
2021/03/07 00:30:58;;;;;;;14.33;9.67;;;;;;;4.09;69.86;101900.69;5033141;28;20408;-69
2021/03/07 00:33:24;;;;;;;20.63;11.47;;;;;;;4.43;69.98;101950.50;5034170;28;20029;-72
2021/03/07 00:35:49;;;;;;;22.93;12.33;;;;;;;4.52;70.49;101964.09;5034508;28;20044;-68
2021/03/07 00:38:14;;;;;;;22.80;12.68;;;;;;;4.45;70.16;101953.19;5034666;28;20051;-71
2021/03/07 00:40:40;;;;;;;12.80;9.20;;;;;;;4.38;70.51;101955.22;5034482;28;20079;-70
2021/03/07 00:43:06;;;;;;;11.47;9.00;;;;;;;4.03;70.90;101914.72;5034269;28;20484;-65
2021/03/07 00:45:33;;;;;;;13.20;9.67;;;;;;;4.18;72.07;101956.06;5034544;28;20513;-70
2021/03/07 00:47:58;;;;;;;10.93;8.93;;;;;;;4.13;72.23;101956.44;5033856;28;20112;-70
2021/03/07 00:50:25;;;;;;;11.77;9.53;;;;;;;3.77;73.48;101944.78;5034388;28;20105;-67
2021/03/07 00:52:51;;;;;;;10.80;8.30;;;;;;;3.46;75.18;101965.91;5023761;28;20104;-71
2021/03/07 00:55:16;;;;;;;13.27;9.73;;;;;;;3.24;76.00;101958.00;5014725;28;20512;-73
2021/03/07 00:57:42;;;;;;;11.47;9.10;;;;;;;3.31;76.48;101956.91;5013478;28;20064;-71
2021/03/07 01:00:15;;;;;;;13.23;9.00;;;;;;;3.21;76.82;101965.38;5016822;28;20021;-71
2021/03/07 01:02:40;;;;;;;12.10;9.30;;;;;;;3.28;76.79;101966.81;5030310;28;20029;-72
2021/03/07 01:05:07;;;;;;;14.37;9.50;;;;;;;3.33;76.74;101948.63;5020188;28;20140;-70
2021/03/07 01:07:33;;;;;;;13.43;9.87;;;;;;;3.17;76.51;101913.16;5018217;28;20025;-70
2021/03/07 01:09:58;;;;;;;15.40;10.43;;;;;;;3.36;76.55;101951.44;5014385;28;20025;-70
2021/03/07 01:12:24;;;;;;;15.37;10.63;;;;;;;3.33;77.27;101953.72;5026251;28;20392;-70
2021/03/07 01:14:50;;;;;;;14.27;10.37;;;;;;;3.16;77.53;101930.88;5007881;28;20045;-70
2021/03/07 01:17:15;;;;;;;14.53;10.47;;;;;;;3.14;77.99;101946.06;5015224;28;20038;-69
2021/03/07 01:19:41;;;;;;;14.57;10.67;;;;;;;3.23;77.96;101944.34;5016383;28;20052;-71
2021/03/07 01:22:07;;;;;;;14.67;10.40;;;;;;;3.40;77.48;101947.50;5014771;28;20522;-69
2021/03/07 01:24:33;;;;;;;14.73;11.00;;;;;;;3.47;77.23;101951.53;5014753;28;20108;-69
2021/03/07 01:26:58;;;;;;;13.13;11.03;;;;;;;3.27;77.08;101912.34;5020339;28;20036;-70
2021/03/07 01:29:24;;;;;;;15.07;10.20;;;;;;;3.47;77.13;101949.84;5033527;28;20100;-70
2021/03/07 01:31:50;;;;;;;17.17;9.90;;;;;;;3.40;76.33;101947.50;5032314;28;20469;-67
2021/03/07 01:34:15;;;;;;;16.30;9.60;;;;;;;3.29;76.84;101955.84;5030897;28;20029;-69
2021/03/07 01:36:40;;;;;;;13.73;9.40;;;;;;;3.20;77.18;101938.06;5032593;28;20100;-66
2021/03/07 01:39:06;;;;;;;14.03;10.87;;;;;;;3.15;77.26;101950.38;5032836;28;20545;-67
2021/03/07 01:41:32;;;;;;;17.20;10.57;;;;;;;3.14;77.83;101961.38;5032869;28;20409;-69
2021/03/07 01:43:57;;;;;;;30.87;13.67;;;;;;;3.04;77.77;101934.13;5031391;28;20045;-71
2021/03/07 01:46:23;;;;;;;17.77;10.57;;;;;;;3.20;77.81;101953.38;5032120;28;20036;-67
2021/03/07 01:48:49;;;;;;;233.20;62.67;;;;;;;2.92;77.29;101892.19;5032313;28;20037;-70
2021/03/07 01:51:15;;;;;;;16.93;10.97;;;;;;;3.10;77.88;101941.41;5032199;28;20022;-70
2021/03/07 01:53:40;;;;;;;35.47;15.23;;;;;;;3.00;77.95;101919.28;5032066;28;20017;-72
2021/03/07 01:56:07;;;;;;;40.37;18.20;;;;;;;3.09;77.76;101924.34;5030985;28;20493;-70
2021/03/07 01:58:35;;;;;;;127.50;45.30;;;;;;;3.05;78.23;101935.00;5032107;28;20032;-70
2021/03/07 02:01:01;;;;;;;20.97;13.03;;;;;;;3.03;77.25;101937.44;5032302;28;20409;-69
2021/03/07 02:03:27;;;;;;;16.03;11.30;;;;;;;2.71;77.06;101881.81;5026727;28;20053;-71
2021/03/07 02:05:53;;;;;;;20.97;15.33;;;;;;;2.99;76.76;101924.25;5018566;28;20029;-70
2021/03/07 02:08:20;;;;;;;14.00;10.90;;;;;;;2.97;77.30;101924.13;5017655;28;20413;-70
2021/03/07 02:10:50;;;;;;;21.37;15.03;;;;;;;3.01;77.14;101928.72;5032574;28;20045;-67
2021/03/07 02:13:30;;;;;;;22.73;15.77;;;;;;;2.94;77.18;101915.28;5032646;28;20029;-69
2021/03/07 02:15:59;;;;;;;15.90;12.60;;;;;;;2.88;77.77;101921.63;5032867;28;20401;-73
2021/03/07 02:18:25;;;;;;;16.23;12.73;;;;;;;2.77;78.32;101922.31;5032700;28;20057;-67
2021/03/07 02:20:58;;;;;;;52.33;25.37;;;;;;;2.70;78.88;101914.84;5032854;28;20049;-68
2021/03/07 02:23:26;;;;;;;126.67;51.57;;;;;;;2.48;78.64;101882.28;5032733;28;20030;-67
2021/03/07 02:25:52;;;;;;;29.83;17.07;;;;;;;2.59;79.07;101909.66;5032546;28;20032;-66
2021/03/07 02:28:20;;;;;;;14.27;10.67;;;;;;;2.67;79.18;101917.13;5028484;28;20075;-73
2021/03/07 02:30:45;;;;;;;63.17;23.70;;;;;;;2.64;79.38;101917.75;5032474;28;20057;-67
2021/03/07 02:33:20;;;;;;;21.37;12.87;;;;;;;2.68;79.22;101930.00;5032399;28;20103;-71
2021/03/07 02:35:58;;;;;;;76.67;30.47;;;;;;;2.57;79.51;101923.91;5032618;28;20041;-68
2021/03/07 02:38:25;;;;;;;16.93;12.30;;;;;;;2.51;79.61;101925.00;5032216;28;20100;-69
2021/03/07 02:40:55;;;;;;;15.37;11.03;;;;;;;2.51;79.04;101919.91;5032709;28;20045;-68
2021/03/07 02:43:22;;;;;;;14.37;10.50;;;;;;;2.57;79.15;101925.56;5032144;28;20119;-70
2021/03/07 02:45:48;;;;;;;20.23;16.10;;;;;;;2.61;79.38;101921.66;5031910;28;20404;-68
2021/03/07 02:48:20;;;;;;;16.60;13.47;;;;;;;2.61;79.07;101925.09;5032268;28;20172;-67
2021/03/07 02:50:47;;;;;;;14.10;10.50;;;;;;;2.39;78.79;101884.88;5031108;28;20029;-71
2021/03/07 02:53:18;;;;;;;16.03;11.10;;;;;;;2.57;78.87;101915.38;5032270;28;20029;-66
2021/03/07 02:55:46;;;;;;;23.90;13.47;;;;;;;2.61;78.31;101916.56;5031914;28;20029;-73
2021/03/07 02:58:15;;;;;;;14.10;10.67;;;;;;;2.60;78.20;101923.28;5031840;28;20033;-69
2021/03/07 03:00:50;;;;;;;14.23;9.83;;;;;;;2.72;78.13;101920.97;5031554;28;20542;-70
2021/03/07 03:03:17;;;;;;;18.47;11.67;;;;;;;2.69;78.30;101916.50;5031831;28;20116;-70
2021/03/07 03:05:43;;;;;;;19.67;16.67;;;;;;;2.66;78.29;101912.78;5031684;28;20033;-67
2021/03/07 03:08:10;;;;;;;15.23;11.77;;;;;;;2.63;78.16;101921.03;5032197;28;20040;-72
2021/03/07 03:10:36;;;;;;;16.47;11.43;;;;;;;2.63;78.14;101920.13;5032034;28;20132;-67
2021/03/07 03:13:04;;;;;;;13.13;11.50;;;;;;;2.62;77.36;101925.97;5032003;28;20033;-72
2021/03/07 03:15:31;;;;;;;18.17;12.93;;;;;;;2.29;78.43;101889.84;5030498;28;20087;-70
2021/03/07 03:17:57;;;;;;;15.33;10.77;;;;;;;2.43;78.23;101922.63;5031631;28;20025;-72
2021/03/07 03:20:25;;;;;;;14.60;11.60;;;;;;;2.41;78.24;101924.13;5032053;28;20496;-67
2021/03/07 03:22:51;;;;;;;13.87;10.23;;;;;;;2.34;78.57;101921.75;5031782;28;20103;-66
2021/03/07 03:25:16;;;;;;;14.37;10.27;;;;;;;2.30;78.74;101917.13;5031620;28;20476;-70
2021/03/07 03:27:43;;;;;;;18.37;11.90;;;;;;;2.23;79.07;101910.56;5031728;28;20033;-70
2021/03/07 03:30:14;;;;;;;15.63;10.47;;;;;;;2.36;78.71;101929.56;5031539;28;20025;-72
2021/03/07 03:32:40;;;;;;;16.40;10.67;;;;;;;2.38;78.68;101926.41;5031434;28;20045;-70
2021/03/07 03:35:17;;;;;;;131.37;41.97;;;;;;;2.43;78.45;101927.72;5031663;28;20025;-70
2021/03/07 03:37:44;;;;;;;30.40;16.00;;;;;;;2.54;78.42;101925.25;5031516;28;20036;-70
2021/03/07 03:40:15;;;;;;;44.97;17.83;;;;;;;2.69;77.51;101921.59;5031695;28;20033;-73
2021/03/07 03:42:42;;;;;;;33.40;14.07;;;;;;;2.86;77.37;101927.34;5031629;28;20029;-69
2021/03/07 03:45:10;;;;;;;17.97;11.03;;;;;;;2.98;76.42;101925.91;5031317;28;20412;-66
2021/03/07 03:47:38;;;;;;;12.57;10.27;;;;;;;3.14;75.71;101919.63;5031631;28;20057;-67
2021/03/07 03:50:06;;;;;;;12.60;9.30;;;;;;;3.22;75.23;101904.25;5030789;28;20508;-68
2021/03/07 03:52:36;;;;;;;12.93;9.60;;;;;;;3.45;75.08;101919.84;5031385;28;20025;-68
2021/03/07 03:55:26;;;;;;;12.77;8.93;;;;;;;3.53;73.80;101909.53;5045723;28;20095;-70
2021/03/07 03:57:55;;;;;;;11.70;8.93;;;;;;;3.60;73.59;101913.56;5032645;28;20056;-68
2021/03/07 04:00:26;;;;;;;12.52;9.48;;;;;;;3.43;73.26;101900.91;5035543;28;20038;-67
2021/03/07 04:02:57;;;;;;;31.50;10.30;;;;;;;3.13;73.57;101875.38;5035529;28;20493;-69
2021/03/07 04:05:25;;;;;;;22.63;11.10;;;;;;;3.22;73.38;101903.38;5035311;28;20087;-68
2021/03/07 04:07:51;;;;;;;16.47;9.53;;;;;;;2.87;73.55;101870.47;5030239;28;20034;-67
2021/03/07 04:10:19;;;;;;;13.13;9.67;;;;;;;3.25;73.77;101906.19;5035040;28;20057;-71
2021/03/07 04:12:49;;;;;;;23.80;11.90;;;;;;;2.96;72.40;101839.78;5035068;28;20031;-73
2021/03/07 04:15:18;;;;;;;13.93;10.37;;;;;;;3.33;73.00;101912.88;5035292;28;20030;-66
2021/03/07 04:17:45;;;;;;;13.80;9.32;;;;;;;3.40;72.64;101894.81;5035065;28;20457;-68
2021/03/07 04:20:12;;;;;;;16.63;9.47;;;;;;;3.53;72.41;101909.53;5035012;28;20079;-66
2021/03/07 04:22:37;;;;;;;15.90;10.73;;;;;;;3.34;72.70;101907.03;5034796;28;20113;-69
2021/03/07 04:25:05;;;;;;;14.93;9.93;;;;;;;3.19;73.92;101905.63;5034841;28;20473;-70
2021/03/07 04:27:32;;;;;;;35.03;17.73;;;;;;;3.21;74.21;101889.69;5034926;28;20032;-69
2021/03/07 04:29:58;;;;;;;244.53;80.37;;;;;;;3.31;74.02;101904.19;5034990;28;20030;-67
2021/03/07 04:32:25;;;;;;;18.70;12.60;;;;;;;3.40;73.62;101896.44;5034480;28;20052;-68
2021/03/07 04:34:51;;;;;;;12.57;9.27;;;;;;;3.30;72.83;101889.66;5034718;28;20029;-70
2021/03/07 04:37:17;;;;;;;13.60;8.73;;;;;;;3.35;72.78;101896.06;5034069;28;20037;-71
2021/03/07 04:39:42;;;;;;;13.90;10.10;;;;;;;3.40;72.38;101902.47;5034340;28;20037;-68
2021/03/07 04:42:08;;;;;;;13.93;11.03;;;;;;;3.23;72.95;101856.69;5034252;28;20500;-70
2021/03/07 04:44:34;;;;;;;12.23;9.83;;;;;;;3.49;72.60;101904.03;5034910;28;20025;-66
2021/03/07 04:46:59;;;;;;;15.93;9.70;;;;;;;3.57;73.13;101903.06;5034925;28;20191;-70
2021/03/07 04:49:25;;;;;;;14.30;9.43;;;;;;;3.26;73.57;101844.16;5034773;28;20134;-72
2021/03/07 04:51:51;;;;;;;21.73;13.30;;;;;;;3.48;72.44;101909.91;5034332;28;20036;-70
2021/03/07 04:54:17;;;;;;;17.57;13.20;;;;;;;3.49;72.99;101910.03;5034056;28;20025;-66
2021/03/07 04:56:43;;;;;;;25.27;17.03;;;;;;;3.54;72.98;101911.34;5033709;28;20033;-66
2021/03/07 04:59:09;;;;;;;28.80;15.33;;;;;;;3.43;71.94;101906.03;5034078;28;20473;-70
2021/03/07 05:01:36;;;;;;;16.97;12.37;;;;;;;3.43;72.59;101913.69;5034111;28;20455;-73
2021/03/07 05:04:03;;;;;;;17.50;11.23;;;;;;;3.38;72.92;101914.19;5028642;28;20061;-68
2021/03/07 05:06:29;;;;;;;23.57;13.33;;;;;;;3.08;73.52;101912.34;5029138;28;20036;-69
2021/03/07 05:08:54;;;;;;;18.20;11.87;;;;;;;2.66;74.32;101918.75;5025214;28;20029;-67
2021/03/07 05:11:23;;;;;;;22.43;13.07;;;;;;;2.92;74.45;101921.13;5031547;28;20049;-68
2021/03/07 05:13:49;;;;;;;16.57;10.73;;;;;;;2.95;73.99;101920.50;5034053;28;20064;-71
2021/03/07 05:16:16;;;;;;;19.00;12.57;;;;;;;2.98;74.75;101927.56;5034142;28;20057;-74
2021/03/07 05:18:43;;;;;;;16.00;10.43;;;;;;;2.96;74.02;101929.97;5033932;28;20106;-70
2021/03/07 05:21:08;;;;;;;14.67;9.60;;;;;;;2.78;74.95;101919.00;5025675;28;20056;-67
2021/03/07 05:23:34;;;;;;;14.03;9.70;;;;;;;2.83;73.97;101930.50;5014342;28;20470;-72
2021/03/07 05:25:59;;;;;;;13.40;9.53;;;;;;;2.91;73.23;101923.56;5013936;28;20022;-66
2021/03/07 05:28:25;;;;;;;10.63;8.23;;;;;;;2.69;73.21;101892.63;5013975;28;20026;-67
2021/03/07 05:30:50;;;;;;;20.27;9.30;;;;;;;2.50;73.14;101852.69;5026082;28;20083;-70
2021/03/07 05:33:16;;;;;;;13.27;8.60;;;;;;;2.82;72.63;101904.88;5033508;28;20173;-67
2021/03/07 05:35:42;;;;;;;13.83;9.10;;;;;;;3.04;72.77;101930.66;5033860;28;20413;-68
2021/03/07 05:38:08;;;;;;;51.07;19.97;;;;;;;2.99;72.51;101940.47;5034008;28;20029;-72
2021/03/07 05:40:35;;;;;;;17.43;9.70;;;;;;;2.79;72.91;101897.84;5033928;28;20104;-71
2021/03/07 05:43:06;;;;;;;13.00;9.17;;;;;;;3.05;73.37;101935.94;5032583;28;20080;-71
2021/03/07 05:45:32;;;;;;;24.77;11.80;;;;;;;3.10;72.84;101943.97;5033755;28;20030;-68
2021/03/07 05:48:01;;;;;;;11.37;8.67;;;;;;;3.00;73.09;101923.50;5033851;28;20413;-67
2021/03/07 05:50:27;;;;;;;16.67;9.57;;;;;;;3.17;72.77;101958.22;5033599;28;20503;-68
2021/03/07 05:52:54;;;;;;;24.23;14.70;;;;;;;3.17;73.08;101950.56;5033924;28;20029;-67
2021/03/07 05:55:21;;;;;;;12.00;9.00;;;;;;;2.77;73.40;101899.34;5033779;28;20025;-66
2021/03/07 05:57:48;;;;;;;13.87;9.97;;;;;;;2.98;73.01;101946.31;5033297;28;20033;-67
2021/03/07 06:00:15;;;;;;;13.07;9.37;;;;;;;2.89;73.54;101940.38;5033340;28;20037;-68
2021/03/07 06:02:41;;;;;;;12.83;9.33;;;;;;;2.90;73.94;101949.81;5033369;28;20499;-68
2021/03/07 06:05:09;;;;;;;20.57;10.70;;;;;;;2.93;74.24;101942.47;5033598;28;20369;-70
2021/03/07 06:07:34;;;;;;;15.07;8.87;;;;;;;3.02;72.97;101940.72;5033355;28;20036;-66
2021/03/07 06:10:21;;;;;;;14.97;9.03;;;;;;;3.16;71.53;101946.19;5033438;28;20125;-67
2021/03/07 06:13:01;;;;;;;15.07;10.23;;;;;;;3.36;70.33;101935.22;5033501;28;20044;-72
2021/03/07 06:15:28;;;;;;;35.70;15.37;;;;;;;3.56;70.46;101931.91;5033442;28;20056;-68
2021/03/07 06:17:53;;;;;;;13.27;9.23;;;;;;;3.65;68.42;101939.47;5032964;28;20029;-67
2021/03/07 06:20:21;;;;;;;16.77;10.63;;;;;;;3.58;67.32;101896.28;5032494;28;20041;-73
2021/03/07 06:22:51;;;;;;;14.70;7.17;;;;;;;3.90;65.71;101934.88;5032993;28;20112;-73
2021/03/07 06:25:17;;;;;;;16.83;7.05;;;;;;;3.92;65.28;101922.25;5033199;28;20040;-68
2021/03/07 06:27:42;;;;;;;12.23;6.50;;;;;;;4.05;63.99;101927.66;5032673;28;20443;-72
2021/03/07 06:30:08;;;;;;;13.63;6.30;;;;;;;4.04;63.74;101926.75;5032920;28;20021;-70
2021/03/07 06:32:49;;;;;;;11.20;6.53;;;;;;;3.83;62.98;101922.34;5032578;28;20460;-68
2021/03/07 06:35:25;;;;;;;11.93;6.43;;;;;;;4.06;63.56;101929.44;5033051;28;20428;-68
2021/03/07 06:37:59;;;;;;;11.83;6.77;;;;;;;3.86;62.68;101914.91;5032800;28;20026;-67
2021/03/07 06:40:44;;;;;;;9.87;5.77;;;;;;;3.83;62.44;101914.66;5033020;28;20030;-70
2021/03/07 06:43:26;;;;;;;11.50;7.10;;;;;;;4.18;64.60;101934.72;5032866;28;20054;-68
2021/03/07 06:45:53;;;;;;;13.83;7.37;;;;;;;4.29;63.96;101921.19;5032851;28;20512;-73
2021/03/07 06:48:19;;;;;;;9.33;6.60;;;;;;;4.40;63.94;101903.31;5032528;28;20497;-73
2021/03/07 06:50:58;;;;;;;9.57;6.27;;;;;;;4.75;63.19;101919.09;5032996;28;20022;-71
2021/03/07 06:53:33;;;;;;;10.40;6.07;;;;;;;4.85;62.51;101903.72;5032512;28;20404;-68
2021/03/07 06:55:59;;;;;;;8.25;5.55;;;;;;;5.16;61.82;101920.75;5032148;28;20560;-68
2021/03/07 06:58:25;;;;;;;10.88;5.60;;;;;;;5.04;59.37;101912.06;5032114;28;20112;-70
2021/03/07 07:00:51;;;;;;;14.35;6.97;;;;;;;5.10;60.94;101912.56;5031877;28;20029;-67
2021/03/07 07:03:17;;;;;;;9.98;5.07;;;;;;;5.29;58.52;101918.38;5032357;28;20463;-67
2021/03/07 07:05:44;;;;;;;8.07;4.38;;;;;;;5.45;56.11;101911.97;5032217;28;20030;-68
2021/03/07 07:08:12;;;;;;;7.03;4.13;;;;;;;5.43;56.47;101916.97;5047389;28;20480;-67
2021/03/07 07:10:56;;;;;;;7.35;4.05;;;;;;;5.24;53.24;101854.78;5031900;28;20045;-68
2021/03/07 07:13:23;;;;;;;10.75;4.90;;;;;;;5.67;56.18;101909.47;5031607;28;20090;-70
2021/03/07 07:15:57;;;;;;;7.53;5.10;;;;;;;5.82;54.60;101910.69;5032048;28;20053;-71
2021/03/07 07:18:24;;;;;;;9.55;6.10;;;;;;;5.51;53.92;101908.22;5031835;28;20025;-67
2021/03/07 07:20:51;;;;;;;7.07;4.95;;;;;;;5.41;54.59;101912.47;5031844;28;20049;-70
2021/03/07 07:23:18;;;;;;;12.30;6.07;;;;;;;5.51;54.12;101908.22;5031945;28;20516;-70
2021/03/07 07:25:44;;;;;;;5.45;3.80;;;;;;;5.03;55.42;101908.56;5031624;28;20036;-67
2021/03/07 07:28:10;;;;;;;9.17;4.60;;;;;;;5.08;57.35;101906.41;5031407;28;20072;-68
2021/03/07 07:30:37;;;;;;;7.07;4.35;;;;;;;5.32;56.92;101903.28;5031086;28;20556;-70
2021/03/07 07:33:05;;;;;;;8.65;3.83;;;;;;;5.32;55.51;101913.53;5032035;28;20018;-70
2021/03/07 07:35:31;;;;;;;6.72;3.97;;;;;;;5.51;55.55;101904.78;5031451;28;20087;-71
2021/03/07 07:38:04;;;;;;;6.38;3.75;;;;;;;5.53;55.64;101904.91;5013241;28;20064;-68
2021/03/07 07:40:43;;;;;;;8.02;3.75;;;;;;;5.21;54.91;101893.84;5031589;28;20030;-67
2021/03/07 07:43:10;;;;;;;5.70;3.50;;;;;;;5.09;56.16;101893.72;5031732;28;20108;-68
2021/03/07 07:45:36;;;;;;;6.65;3.85;;;;;;;5.00;57.94;101898.97;5031600;28;20404;-68
2021/03/07 07:48:02;;;;;;;6.72;3.75;;;;;;;4.75;56.83;101859.31;5031425;28;20108;-67
2021/03/07 07:50:28;;;;;;;7.38;3.78;;;;;;;4.93;55.69;101890.69;5031358;28;20037;-71
2021/03/07 07:53:01;;;;;;;9.20;3.67;;;;;;;5.04;56.14;101883.91;5031116;28;20022;-68
2021/03/07 07:55:50;;;;;;;5.97;3.63;;;;;;;5.16;56.53;101882.34;5031184;28;20091;-66
2021/03/07 07:58:37;;;;;;;7.53;4.75;;;;;;;5.32;55.73;101881.88;5031298;28;20035;-67
2021/03/07 08:01:04;;;;;;;30.25;11.73;;;;;;;5.50;57.89;101856.88;5031263;28;20079;-68
2021/03/07 08:03:34;;;;;;;197.90;61.75;;;;;;;5.85;57.13;101880.94;5031424;28;20032;-68
2021/03/07 08:06:07;;;;;;;4.90;2.95;;;;;;;5.58;53.83;101875.41;5031586;28;20109;-66
2021/03/07 08:08:41;;;;;;;5.38;3.35;;;;;;;5.59;56.04;101870.41;5031474;28;20057;-67
2021/03/07 08:11:26;;;;;;;7.70;3.40;;;;;;;5.65;55.90;101865.78;5046387;28;20110;-70
2021/03/07 08:13:53;;;;;;;7.47;3.60;;;;;;;5.55;56.67;101857.25;5031116;28;20033;-73
2021/03/07 08:16:41;;;;;;;4.80;3.05;;;;;;;5.91;58.12;101869.50;5030179;28;20025;-67
2021/03/07 08:19:19;;;;;;;5.63;3.28;;;;;;;6.12;57.67;101859.19;5031310;28;20037;-67
2021/03/07 08:21:56;;;;;;;7.38;3.60;;;;;;;5.84;55.68;101803.16;5031157;28;20040;-69
2021/03/07 08:24:21;;;;;;;8.45;3.83;;;;;;;6.16;57.02;101853.50;5031091;28;20029;-68
2021/03/07 08:26:46;;;;;;;3.92;2.70;;;;;;;6.29;54.46;101843.41;5031011;28;20507;-70
2021/03/07 08:29:48;;;;;;;12.40;7.40;;;;;;;6.48;54.84;101832.88;5031308;28;20052;-67
2021/03/07 08:32:36;;;;;;;9.15;4.10;;;;;;;6.92;56.26;101836.97;5008936;28;20049;-69
2021/03/07 08:35:17;;;;;;;6.55;3.17;;;;;;;6.84;54.62;101830.38;5009219;28;20433;-67
2021/03/07 08:38:08;;;;;;;6.65;3.20;;;;;;;6.60;53.86;101827.78;5009091;28;20037;-73
2021/03/07 08:40:35;;;;;;;7.60;3.53;;;;;;;6.87;54.07;101822.00;4992770;28;20076;-71
2021/03/07 08:43:25;;;;;;;7.88;3.85;;;;;;;6.79;52.81;101818.84;5011501;28;20125;-67
2021/03/07 08:46:08;;;;;;;5.72;2.70;;;;;;;6.83;53.08;101776.34;4996296;28;20030;-67
2021/03/07 08:48:36;;;;;;;7.18;3.30;;;;;;;6.90;52.97;101818.00;5012672;28;20054;-68
2021/03/07 08:51:03;;;;;;;7.68;3.10;;;;;;;6.79;54.01;101814.63;5012685;28;20037;-68
2021/03/07 08:53:32;;;;;;;6.30;3.03;;;;;;;6.57;52.64;101806.13;5012585;28;20030;-73
2021/03/07 08:55:58;;;;;;;5.63;3.13;;;;;;;6.58;51.84;101761.69;5012600;28;20049;-67
2021/03/07 08:58:24;;;;;;;6.85;3.30;;;;;;;6.42;52.60;101795.63;4995799;28;20480;-70
2021/03/07 09:00:53;;;;;;;9.80;7.55;;;;;;;6.39;54.39;101795.38;5012002;28;20093;-67
2021/03/07 09:03:20;;;;;;;8.68;5.00;;;;;;;6.42;54.08;101793.94;5012267;28;20030;-67
2021/03/07 09:05:46;;;;;;;6.53;3.53;;;;;;;5.95;53.44;101716.84;5012724;28;20541;-66
2021/03/07 09:08:12;;;;;;;5.82;3.03;;;;;;;6.51;54.12;101780.88;5027382;28;20103;-66
2021/03/07 09:10:41;;;;;;;8.60;3.63;;;;;;;6.97;52.25;101789.41;5034273;28;20501;-68
2021/03/07 09:13:18;;;;;;;6.47;3.38;;;;;;;7.26;51.23;101777.78;5034200;28;20064;-73
2021/03/07 09:16:01;;;;;;;6.65;2.97;;;;;;;7.28;48.27;101758.22;5034161;28;20026;-67
2021/03/07 09:18:29;;;;;;;7.07;2.60;;;;;;;7.49;49.70;101775.94;5048926;28;20436;-68
2021/03/07 09:21:00;;;;;;;6.05;2.83;;;;;;;7.35;49.03;101768.94;5034304;28;20497;-67
2021/03/07 09:23:33;;;;;;;7.63;2.78;;;;;;;7.49;49.43;101765.69;5034251;28;20037;-67
2021/03/07 09:26:01;;;;;;;6.63;3.08;;;;;;;7.67;49.80;101762.59;5033956;28;20021;-68
2021/03/07 09:28:35;;;;;;;4.72;2.88;;;;;;;7.47;47.78;101722.69;5033895;28;20108;-69
2021/03/07 09:31:03;;;;;;;5.40;2.75;;;;;;;7.74;46.02;101746.81;5017604;28;20030;-70
2021/03/07 09:33:29;;;;;;;7.38;3.97;;;;;;;7.39;49.83;101758.09;5011785;28;20116;-66
2021/03/07 09:36:07;;;;;;;5.55;2.78;;;;;;;7.59;48.13;101701.28;5014081;28;20050;-70
2021/03/07 09:38:57;;;;;;;5.43;2.53;;;;;;;8.04;47.63;101744.56;4995884;28;20038;-70
2021/03/07 09:41:43;;;;;;;6.10;2.80;;;;;;;7.81;47.01;101741.28;5013881;28;20037;-67
2021/03/07 09:44:11;;;;;;;8.80;3.13;;;;;;;7.72;45.92;101709.81;5014026;28;20030;-71
2021/03/07 09:46:37;;;;;;;7.93;3.70;;;;;;;8.14;48.82;101736.69;5014019;28;20030;-67
2021/03/07 09:49:07;;;;;;;6.22;3.22;;;;;;;8.12;46.77;101734.78;5013947;28;20176;-68
2021/03/07 09:51:36;;;;;;;6.90;3.47;;;;;;;8.21;46.76;101726.00;4995511;28;20034;-70
2021/03/07 09:54:03;;;;;;;6.07;3.50;;;;;;;8.47;47.00;101720.84;5012692;28;20033;-70
2021/03/07 09:56:33;;;;;;;5.70;3.00;;;;;;;8.69;44.46;101721.44;5012464;28;20033;-70
2021/03/07 09:59:25;;;;;;;5.22;3.20;;;;;;;8.94;44.03;101716.97;5011435;28;20049;-69
2021/03/07 10:01:59;;;;;;;4.22;2.47;;;;;;;8.90;43.55;101706.47;5013472;28;20038;-71
2021/03/07 10:04:47;;;;;;;4.85;2.75;;;;;;;9.17;44.72;101710.69;5013441;28;20036;-66
2021/03/07 10:07:15;;;;;;;7.40;3.20;;;;;;;9.47;48.10;101703.97;5013660;28;20038;-67
2021/03/07 10:09:57;;;;;;;7.35;3.60;;;;;;;9.55;42.14;101707.91;5013631;28;20042;-70
2021/03/07 10:12:23;;;;;;;95.07;39.70;;;;;;;9.70;44.14;101704.47;5013256;28;20129;-70
2021/03/07 10:14:54;;;;;;;23.50;9.85;;;;;;;9.85;42.93;101695.06;5013242;28;20030;-71
2021/03/07 10:17:19;;;;;;;144.20;52.35;;;;;;;10.15;42.45;101683.91;5013517;28;20105;-68
2021/03/07 10:19:45;;;;;;;8.43;3.83;;;;;;;10.30;40.60;101677.03;5011186;28;20125;-67
2021/03/07 10:22:12;;;;;;;11.35;5.22;;;;;;;10.40;45.18;101688.81;5013192;28;20477;-68
2021/03/07 10:24:38;;;;;;;6.35;3.20;;;;;;;10.20;42.23;101642.09;5013140;28;20030;-71
2021/03/07 10:27:06;;;;;;;8.30;3.33;;;;;;;10.30;41.83;101676.16;5012828;28;20022;-67
2021/03/07 10:29:40;;;;;;;31.77;12.30;;;;;;;10.56;43.10;101661.31;5013205;28;20056;-68
2021/03/07 10:32:17;;;;;;;54.25;24.48;;;;;;;10.67;41.16;101657.63;5013062;28;20080;-72
2021/03/07 10:34:49;;;;;;;6.53;3.63;;;;;;;10.59;39.51;101627.88;5013053;28;20026;-68
2021/03/07 10:37:39;;;;;;;10.52;3.85;;;;;;;10.72;39.95;101655.31;5011425;28;20022;-68
2021/03/07 10:40:11;;;;;;;7.10;4.07;;;;;;;10.77;39.71;101643.53;5012908;28;20051;-68
2021/03/07 10:42:39;;;;;;;9.35;3.88;;;;;;;10.73;37.80;101620.88;5012919;28;20052;-71
2021/03/07 10:45:21;;;;;;;8.98;3.42;;;;;;;10.84;38.08;101633.59;5012883;28;20026;-68
2021/03/07 10:48:03;;;;;;;8.48;3.65;;;;;;;10.39;39.88;101643.13;5010672;28;20121;-72
2021/03/07 10:50:29;;;;;;;7.75;4.03;;;;;;;10.37;38.34;101600.88;5010838;28;20065;-67
2021/03/07 10:52:55;;;;;;;12.70;4.55;;;;;;;10.33;38.77;101616.94;5012858;28;20029;-68
2021/03/07 10:55:21;;;;;;;8.57;5.45;;;;;;;10.25;42.16;101624.25;5012766;28;20022;-71
2021/03/07 10:57:47;;;;;;;6.07;3.75;;;;;;;10.16;41.34;101622.03;5012277;28;20018;-67
2021/03/07 11:00:13;;;;;;;28.20;13.88;;;;;;;10.17;41.50;101621.25;5012468;28;20037;-73
2021/03/07 11:02:39;;;;;;;11.98;5.45;;;;;;;9.61;40.74;101568.16;5010150;28;20100;-68
2021/03/07 11:05:05;;;;;;;12.60;5.70;;;;;;;9.44;40.96;101613.56;5012413;28;20022;-67
2021/03/07 11:07:30;;;;;;;39.40;11.00;;;;;;;9.05;40.78;101593.19;5027574;28;20025;-68
2021/03/07 11:09:56;;;;;;;16.25;8.70;;;;;;;8.87;43.34;101592.97;5012331;28;20076;-73
2021/03/07 11:12:22;;;;;;;7.85;3.20;;;;;;;8.53;43.41;101610.56;5012349;28;20417;-68
2021/03/07 11:14:47;;;;;;;39.85;15.05;;;;;;;8.44;43.54;101597.97;5012057;28;20390;-72
2021/03/07 11:17:13;;;;;;;9.30;4.30;;;;;;;8.08;42.48;101569.97;5012190;28;20026;-70
2021/03/07 11:19:38;;;;;;;56.72;22.02;;;;;;;8.35;44.40;101587.97;5012375;28;20032;-72
2021/03/07 11:22:04;;;;;;;9.05;3.35;;;;;;;7.99;44.10;101589.03;5012293;28;20433;-70
2021/03/07 11:24:29;;;;;;;43.35;18.38;;;;;;;8.07;44.50;101580.16;5012194;28;20026;-68
2021/03/07 11:26:55;;;;;;;11.10;5.32;;;;;;;8.17;46.02;101585.09;5011951;28;20030;-71
2021/03/07 11:29:21;;;;;;;6.93;5.10;;;;;;;8.04;44.52;101568.00;5011577;28;20030;-68
2021/03/07 11:31:47;;;;;;;7.55;4.40;;;;;;;8.03;45.08;101575.63;5011573;28;20064;-67
2021/03/07 11:34:12;;;;;;;12.48;4.35;;;;;;;8.04;45.17;101568.00;5012221;28;20033;-70